sensor_id;sensor_type;location;lat;lon;timestamp;P1;durP1;ratioP1;P2;durP2;ratioP2
22184;SDS011;11258;52.516;13.318;2023-12-22T00:01:00;8.97;;;1.80;;
22184;SDS011;11258;52.516;13.318;2023-12-22T00:03:26;4.77;;;1.37;;
22184;SDS011;11258;52.516;13.318;2023-12-22T00:05:52;5.20;;;1.33;;
22184;SDS011;11258;52.516;13.318;2023-12-22T00:08:18;6.13;;;1.70;;
22184;SDS011;11258;52.516;13.318;2023-12-22T00:10:44;2.27;;;1.00;;
22184;SDS011;11258;52.516;13.318;2023-12-22T00:13:10;9.00;;;1.20;;
22184;SDS011;11258;52.516;13.318;2023-12-22T00:15:36;8.07;;;1.60;;
22184;SDS011;11258;52.516;13.318;2023-12-22T00:18:03;8.53;;;1.87;;
22184;SDS011;11258;52.516;13.318;2023-12-22T00:20:29;4.63;;;1.43;;
22184;SDS011;11258;52.516;13.318;2023-12-22T00:22:55;7.43;;;1.97;;
22184;SDS011;11258;52.516;13.318;2023-12-22T00:25:21;9.50;;;2.13;;
22184;SDS011;11258;52.516;13.318;2023-12-22T00:27:47;8.67;;;1.60;;
22184;SDS011;11258;52.516;13.318;2023-12-22T00:30:13;7.57;;;2.07;;
22184;SDS011;11258;52.516;13.318;2023-12-22T00:32:39;10.03;;;2.47;;
22184;SDS011;11258;52.516;13.318;2023-12-22T00:35:05;10.03;;;2.50;;
22184;SDS011;11258;52.516;13.318;2023-12-22T00:37:31;7.47;;;1.57;;
22184;SDS011;11258;52.516;13.318;2023-12-22T00:39:57;9.37;;;2.10;;
22184;SDS011;11258;52.516;13.318;2023-12-22T00:42:23;9.13;;;1.77;;
22184;SDS011;11258;52.516;13.318;2023-12-22T00:44:50;8.67;;;1.93;;
22184;SDS011;11258;52.516;13.318;2023-12-22T00:47:17;9.90;;;1.80;;
22184;SDS011;11258;52.516;13.318;2023-12-22T00:49:43;7.33;;;2.23;;
22184;SDS011;11258;52.516;13.318;2023-12-22T00:52:09;10.90;;;2.60;;
22184;SDS011;11258;52.516;13.318;2023-12-22T00:54:35;9.13;;;1.80;;
22184;SDS011;11258;52.516;13.318;2023-12-22T00:57:01;7.33;;;1.97;;
22184;SDS011;11258;52.516;13.318;2023-12-22T00:59:27;9.43;;;2.17;;
22184;SDS011;11258;52.516;13.318;2023-12-22T01:01:53;8.50;;;1.60;;
22184;SDS011;11258;52.516;13.318;2023-12-22T01:04:19;9.33;;;1.87;;
22184;SDS011;11258;52.516;13.318;2023-12-22T01:06:45;3.93;;;2.30;;
22184;SDS011;11258;52.516;13.318;2023-12-22T01:09:11;8.17;;;1.57;;
22184;SDS011;11258;52.516;13.318;2023-12-22T01:11:37;5.63;;;1.20;;
22184;SDS011;11258;52.516;13.318;2023-12-22T01:14:03;6.97;;;1.70;;
22184;SDS011;11258;52.516;13.318;2023-12-22T01:16:31;8.03;;;1.57;;
22184;SDS011;11258;52.516;13.318;2023-12-22T01:18:57;8.33;;;1.83;;
22184;SDS011;11258;52.516;13.318;2023-12-22T01:21:23;7.20;;;1.80;;
22184;SDS011;11258;52.516;13.318;2023-12-22T01:23:49;7.07;;;1.93;;
22184;SDS011;11258;52.516;13.318;2023-12-22T01:26:15;5.57;;;1.33;;
22184;SDS011;11258;52.516;13.318;2023-12-22T01:28:41;8.87;;;2.07;;
22184;SDS011;11258;52.516;13.318;2023-12-22T01:31:07;6.77;;;1.90;;
22184;SDS011;11258;52.516;13.318;2023-12-22T01:33:33;5.97;;;1.33;;
22184;SDS011;11258;52.516;13.318;2023-12-22T01:35:59;7.60;;;1.63;;
22184;SDS011;11258;52.516;13.318;2023-12-22T01:38:25;5.57;;;1.67;;
22184;SDS011;11258;52.516;13.318;2023-12-22T01:40:51;7.23;;;1.70;;
22184;SDS011;11258;52.516;13.318;2023-12-22T01:43:17;6.77;;;1.40;;
22184;SDS011;11258;52.516;13.318;2023-12-22T01:45:47;3.63;;;1.50;;
22184;SDS011;11258;52.516;13.318;2023-12-22T01:48:13;6.30;;;1.90;;
22184;SDS011;11258;52.516;13.318;2023-12-22T01:50:39;4.23;;;1.00;;
22184;SDS011;11258;52.516;13.318;2023-12-22T01:53:05;6.77;;;1.37;;
22184;SDS011;11258;52.516;13.318;2023-12-22T01:55:31;6.30;;;1.73;;
22184;SDS011;11258;52.516;13.318;2023-12-22T01:57:58;6.80;;;1.67;;
22184;SDS011;11258;52.516;13.318;2023-12-22T02:00:24;6.37;;;1.50;;
22184;SDS011;11258;52.516;13.318;2023-12-22T02:02:50;9.80;;;1.87;;
22184;SDS011;11258;52.516;13.318;2023-12-22T02:05:16;7.57;;;1.33;;
22184;SDS011;11258;52.516;13.318;2023-12-22T02:07:42;7.57;;;1.90;;
22184;SDS011;11258;52.516;13.318;2023-12-22T02:10:09;5.07;;;1.60;;
22184;SDS011;11258;52.516;13.318;2023-12-22T02:12:36;8.97;;;1.70;;
22184;SDS011;11258;52.516;13.318;2023-12-22T02:15:02;11.43;;;1.63;;
22184;SDS011;11258;52.516;13.318;2023-12-22T02:17:33;9.77;;;1.70;;
22184;SDS011;11258;52.516;13.318;2023-12-22T02:20:02;8.80;;;1.60;;
22184;SDS011;11258;52.516;13.318;2023-12-22T02:22:29;9.43;;;1.97;;
22184;SDS011;11258;52.516;13.318;2023-12-22T02:24:58;8.73;;;1.33;;
22184;SDS011;11258;52.516;13.318;2023-12-22T02:29:54;7.03;;;1.53;;
22184;SDS011;11258;52.516;13.318;2023-12-22T02:32:22;6.10;;;1.40;;
22184;SDS011;11258;52.516;13.318;2023-12-22T02:34:51;4.73;;;1.83;;
22184;SDS011;11258;52.516;13.318;2023-12-22T02:37:18;7.30;;;1.40;;
22184;SDS011;11258;52.516;13.318;2023-12-22T02:39:45;9.80;;;1.93;;
22184;SDS011;11258;52.516;13.318;2023-12-22T02:42:12;6.63;;;1.37;;
22184;SDS011;11258;52.516;13.318;2023-12-22T02:44:38;6.93;;;1.33;;
22184;SDS011;11258;52.516;13.318;2023-12-22T02:47:04;3.50;;;1.60;;
22184;SDS011;11258;52.516;13.318;2023-12-22T02:49:31;4.60;;;1.57;;
22184;SDS011;11258;52.516;13.318;2023-12-22T02:51:56;9.97;;;1.70;;
22184;SDS011;11258;52.516;13.318;2023-12-22T02:54:22;7.13;;;1.10;;
22184;SDS011;11258;52.516;13.318;2023-12-22T02:56:48;10.07;;;1.33;;
22184;SDS011;11258;52.516;13.318;2023-12-22T02:59:14;3.30;;;1.53;;
22184;SDS011;11258;52.516;13.318;2023-12-22T03:01:40;5.17;;;1.23;;
22184;SDS011;11258;52.516;13.318;2023-12-22T03:04:07;6.63;;;1.10;;
22184;SDS011;11258;52.516;13.318;2023-12-22T03:06:33;3.63;;;0.90;;
22184;SDS011;11258;52.516;13.318;2023-12-22T03:08:59;6.33;;;1.20;;
22184;SDS011;11258;52.516;13.318;2023-12-22T03:11:25;5.63;;;0.87;;
22184;SDS011;11258;52.516;13.318;2023-12-22T03:13:51;5.30;;;1.17;;
22184;SDS011;11258;52.516;13.318;2023-12-22T03:16:17;8.40;;;1.37;;
22184;SDS011;11258;52.516;13.318;2023-12-22T03:18:43;3.93;;;1.10;;
22184;SDS011;11258;52.516;13.318;2023-12-22T03:21:15;4.40;;;1.00;;
22184;SDS011;11258;52.516;13.318;2023-12-22T03:23:42;7.93;;;1.13;;
22184;SDS011;11258;52.516;13.318;2023-12-22T03:26:08;2.00;;;0.97;;
22184;SDS011;11258;52.516;13.318;2023-12-22T03:28:34;3.80;;;0.83;;
22184;SDS011;11258;52.516;13.318;2023-12-22T03:31:00;4.97;;;1.20;;
22184;SDS011;11258;52.516;13.318;2023-12-22T03:33:26;4.63;;;1.30;;
22184;SDS011;11258;52.516;13.318;2023-12-22T03:35:52;7.93;;;1.00;;
22184;SDS011;11258;52.516;13.318;2023-12-22T03:38:18;3.40;;;1.50;;
22184;SDS011;11258;52.516;13.318;2023-12-22T03:40:44;3.60;;;0.80;;
22184;SDS011;11258;52.516;13.318;2023-12-22T03:43:10;6.87;;;1.60;;
22184;SDS011;11258;52.516;13.318;2023-12-22T03:45:36;5.07;;;0.97;;
22184;SDS011;11258;52.516;13.318;2023-12-22T03:48:02;3.80;;;1.20;;
22184;SDS011;11258;52.516;13.318;2023-12-22T03:50:28;7.37;;;1.00;;
22184;SDS011;11258;52.516;13.318;2023-12-22T03:52:54;4.93;;;1.23;;
22184;SDS011;11258;52.516;13.318;2023-12-22T03:55:21;5.30;;;0.97;;
22184;SDS011;11258;52.516;13.318;2023-12-22T03:57:47;3.63;;;1.70;;
22184;SDS011;11258;52.516;13.318;2023-12-22T04:00:13;4.03;;;1.30;;
22184;SDS011;11258;52.516;13.318;2023-12-22T04:02:41;7.57;;;1.10;;
22184;SDS011;11258;52.516;13.318;2023-12-22T04:05:07;3.17;;;0.93;;
22184;SDS011;11258;52.516;13.318;2023-12-22T04:07:33;1.93;;;0.73;;
22184;SDS011;11258;52.516;13.318;2023-12-22T04:10:01;3.40;;;0.67;;
22184;SDS011;11258;52.516;13.318;2023-12-22T04:12:27;3.23;;;0.60;;
22184;SDS011;11258;52.516;13.318;2023-12-22T04:14:53;4.70;;;0.70;;
22184;SDS011;11258;52.516;13.318;2023-12-22T04:17:19;2.47;;;0.80;;
22184;SDS011;11258;52.516;13.318;2023-12-22T04:19:45;2.13;;;0.50;;
22184;SDS011;11258;52.516;13.318;2023-12-22T04:22:11;0.63;;;0.40;;
22184;SDS011;11258;52.516;13.318;2023-12-22T04:24:37;1.70;;;0.50;;
22184;SDS011;11258;52.516;13.318;2023-12-22T04:27:03;2.00;;;0.40;;
22184;SDS011;11258;52.516;13.318;2023-12-22T04:29:29;1.03;;;0.40;;
22184;SDS011;11258;52.516;13.318;2023-12-22T04:31:55;4.60;;;0.77;;
22184;SDS011;11258;52.516;13.318;2023-12-22T04:34:21;2.87;;;0.63;;
22184;SDS011;11258;52.516;13.318;2023-12-22T04:36:48;9.70;;;1.23;;
22184;SDS011;11258;52.516;13.318;2023-12-22T04:39:14;3.10;;;1.40;;
22184;SDS011;11258;52.516;13.318;2023-12-22T04:41:40;3.20;;;0.90;;
22184;SDS011;11258;52.516;13.318;2023-12-22T04:44:06;1.67;;;0.70;;
22184;SDS011;11258;52.516;13.318;2023-12-22T04:46:32;4.63;;;1.17;;
22184;SDS011;11258;52.516;13.318;2023-12-22T04:48:58;3.10;;;0.70;;
22184;SDS011;11258;52.516;13.318;2023-12-22T04:51:24;2.60;;;0.97;;
22184;SDS011;11258;52.516;13.318;2023-12-22T04:53:50;4.40;;;0.90;;
22184;SDS011;11258;52.516;13.318;2023-12-22T04:56:16;2.53;;;0.70;;
22184;SDS011;11258;52.516;13.318;2023-12-22T04:58:42;5.33;;;0.83;;
22184;SDS011;11258;52.516;13.318;2023-12-22T05:01:08;3.90;;;1.20;;
22184;SDS011;11258;52.516;13.318;2023-12-22T05:03:34;2.60;;;0.43;;
22184;SDS011;11258;52.516;13.318;2023-12-22T05:06:00;1.60;;;0.40;;
22184;SDS011;11258;52.516;13.318;2023-12-22T05:08:26;3.57;;;0.53;;
22184;SDS011;11258;52.516;13.318;2023-12-22T05:10:52;0.83;;;0.50;;
22184;SDS011;11258;52.516;13.318;2023-12-22T05:13:18;1.93;;;0.40;;
22184;SDS011;11258;52.516;13.318;2023-12-22T05:15:44;4.70;;;0.50;;
22184;SDS011;11258;52.516;13.318;2023-12-22T05:18:10;1.90;;;0.47;;
22184;SDS011;11258;52.516;13.318;2023-12-22T05:20:36;0.83;;;0.37;;
22184;SDS011;11258;52.516;13.318;2023-12-22T05:23:02;1.73;;;0.43;;
22184;SDS011;11258;52.516;13.318;2023-12-22T05:25:28;0.83;;;0.50;;
22184;SDS011;11258;52.516;13.318;2023-12-22T05:27:54;4.87;;;0.60;;
22184;SDS011;11258;52.516;13.318;2023-12-22T05:30:20;1.60;;;0.50;;
22184;SDS011;11258;52.516;13.318;2023-12-22T05:32:46;1.70;;;0.57;;
22184;SDS011;11258;52.516;13.318;2023-12-22T05:35:12;1.30;;;0.50;;
22184;SDS011;11258;52.516;13.318;2023-12-22T05:37:38;2.63;;;0.47;;
22184;SDS011;11258;52.516;13.318;2023-12-22T05:40:05;5.57;;;0.70;;
22184;SDS011;11258;52.516;13.318;2023-12-22T05:42:34;2.97;;;0.50;;
22184;SDS011;11258;52.516;13.318;2023-12-22T05:45:00;3.63;;;0.40;;
22184;SDS011;11258;52.516;13.318;2023-12-22T05:47:26;0.60;;;0.40;;
22184;SDS011;11258;52.516;13.318;2023-12-22T05:49:52;0.93;;;0.60;;
22184;SDS011;11258;52.516;13.318;2023-12-22T05:52:18;3.30;;;0.47;;
22184;SDS011;11258;52.516;13.318;2023-12-22T05:54:44;1.43;;;0.50;;
22184;SDS011;11258;52.516;13.318;2023-12-22T05:57:10;5.60;;;0.90;;
22184;SDS011;11258;52.516;13.318;2023-12-22T05:59:37;6.47;;;0.80;;
22184;SDS011;11258;52.516;13.318;2023-12-22T06:02:03;6.03;;;0.70;;
22184;SDS011;11258;52.516;13.318;2023-12-22T06:04:29;1.37;;;0.40;;
22184;SDS011;11258;52.516;13.318;2023-12-22T06:06:56;3.30;;;0.67;;
22184;SDS011;11258;52.516;13.318;2023-12-22T06:09:21;0.77;;;0.50;;
22184;SDS011;11258;52.516;13.318;2023-12-22T06:11:48;2.97;;;0.50;;
22184;SDS011;11258;52.516;13.318;2023-12-22T06:14:14;2.83;;;0.50;;
22184;SDS011;11258;52.516;13.318;2023-12-22T06:16:40;2.97;;;1.30;;
22184;SDS011;11258;52.516;13.318;2023-12-22T06:19:06;2.47;;;0.70;;
22184;SDS011;11258;52.516;13.318;2023-12-22T06:21:32;1.20;;;0.60;;
22184;SDS011;11258;52.516;13.318;2023-12-22T06:23:58;2.37;;;0.70;;
22184;SDS011;11258;52.516;13.318;2023-12-22T06:26:24;4.33;;;0.63;;
22184;SDS011;11258;52.516;13.318;2023-12-22T06:28:50;2.87;;;0.60;;
22184;SDS011;11258;52.516;13.318;2023-12-22T06:31:16;4.17;;;0.37;;
22184;SDS011;11258;52.516;13.318;2023-12-22T06:33:46;4.50;;;0.70;;
22184;SDS011;11258;52.516;13.318;2023-12-22T06:36:22;0.77;;;0.40;;
22184;SDS011;11258;52.516;13.318;2023-12-22T06:38:48;2.00;;;0.50;;
22184;SDS011;11258;52.516;13.318;2023-12-22T06:41:19;2.33;;;0.70;;
22184;SDS011;11258;52.516;13.318;2023-12-22T06:43:45;4.27;;;0.43;;
22184;SDS011;11258;52.516;13.318;2023-12-22T06:46:17;2.10;;;0.50;;
22184;SDS011;11258;52.516;13.318;2023-12-22T06:48:44;2.60;;;0.70;;
22184;SDS011;11258;52.516;13.318;2023-12-22T06:51:19;2.50;;;0.33;;
22184;SDS011;11258;52.516;13.318;2023-12-22T06:53:46;0.97;;;0.50;;
22184;SDS011;11258;52.516;13.318;2023-12-22T06:56:19;4.53;;;0.53;;
22184;SDS011;11258;52.516;13.318;2023-12-22T06:58:46;3.47;;;0.60;;
22184;SDS011;11258;52.516;13.318;2023-12-22T07:01:25;2.27;;;0.67;;
22184;SDS011;11258;52.516;13.318;2023-12-22T07:03:51;2.63;;;0.90;;
22184;SDS011;11258;52.516;13.318;2023-12-22T07:06:18;4.07;;;0.83;;
22184;SDS011;11258;52.516;13.318;2023-12-22T07:08:57;2.03;;;0.60;;
22184;SDS011;11258;52.516;13.318;2023-12-22T07:11:23;1.67;;;0.57;;
22184;SDS011;11258;52.516;13.318;2023-12-22T07:13:49;4.37;;;0.70;;
22184;SDS011;11258;52.516;13.318;2023-12-22T07:16:15;2.20;;;0.50;;
22184;SDS011;11258;52.516;13.318;2023-12-22T07:18:41;1.43;;;0.67;;
22184;SDS011;11258;52.516;13.318;2023-12-22T07:21:07;3.10;;;0.90;;
22184;SDS011;11258;52.516;13.318;2023-12-22T07:23:33;2.27;;;0.73;;
22184;SDS011;11258;52.516;13.318;2023-12-22T07:25:59;0.70;;;0.40;;
22184;SDS011;11258;52.516;13.318;2023-12-22T07:28:25;1.50;;;0.80;;
22184;SDS011;11258;52.516;13.318;2023-12-22T07:30:51;1.80;;;0.77;;
22184;SDS011;11258;52.516;13.318;2023-12-22T07:33:18;2.63;;;0.70;;
22184;SDS011;11258;52.516;13.318;2023-12-22T07:35:44;3.70;;;0.73;;
22184;SDS011;11258;52.516;13.318;2023-12-22T07:38:10;5.00;;;0.97;;
22184;SDS011;11258;52.516;13.318;2023-12-22T07:40:36;1.80;;;0.90;;
22184;SDS011;11258;52.516;13.318;2023-12-22T07:43:02;2.07;;;0.70;;
22184;SDS011;11258;52.516;13.318;2023-12-22T07:45:28;5.07;;;1.10;;
22184;SDS011;11258;52.516;13.318;2023-12-22T07:47:54;5.13;;;0.60;;
22184;SDS011;11258;52.516;13.318;2023-12-22T07:50:20;7.77;;;1.13;;
22184;SDS011;11258;52.516;13.318;2023-12-22T07:52:46;2.87;;;0.70;;
22184;SDS011;11258;52.516;13.318;2023-12-22T07:55:13;3.70;;;1.27;;
22184;SDS011;11258;52.516;13.318;2023-12-22T07:57:39;2.60;;;0.77;;
22184;SDS011;11258;52.516;13.318;2023-12-22T08:00:06;1.70;;;0.90;;
22184;SDS011;11258;52.516;13.318;2023-12-22T08:02:34;4.97;;;0.93;;
22184;SDS011;11258;52.516;13.318;2023-12-22T08:05:00;2.70;;;0.80;;
22184;SDS011;11258;52.516;13.318;2023-12-22T08:07:32;5.80;;;0.87;;
22184;SDS011;11258;52.516;13.318;2023-12-22T08:09:58;2.30;;;0.30;;
22184;SDS011;11258;52.516;13.318;2023-12-22T08:12:24;5.00;;;0.77;;
22184;SDS011;11258;52.516;13.318;2023-12-22T08:14:50;1.77;;;0.57;;
22184;SDS011;11258;52.516;13.318;2023-12-22T08:17:16;2.73;;;0.83;;
22184;SDS011;11258;52.516;13.318;2023-12-22T08:19:42;1.47;;;0.87;;
22184;SDS011;11258;52.516;13.318;2023-12-22T08:22:11;2.43;;;0.60;;
22184;SDS011;11258;52.516;13.318;2023-12-22T08:24:40;1.37;;;0.43;;
22184;SDS011;11258;52.516;13.318;2023-12-22T08:27:06;1.60;;;0.50;;
22184;SDS011;11258;52.516;13.318;2023-12-22T08:29:32;1.40;;;0.20;;
22184;SDS011;11258;52.516;13.318;2023-12-22T08:31:58;2.27;;;0.67;;
22184;SDS011;11258;52.516;13.318;2023-12-22T08:34:25;4.17;;;0.87;;
22184;SDS011;11258;52.516;13.318;2023-12-22T08:36:51;1.17;;;0.67;;
22184;SDS011;11258;52.516;13.318;2023-12-22T08:39:17;0.87;;;0.50;;
22184;SDS011;11258;52.516;13.318;2023-12-22T08:41:44;3.27;;;0.80;;
22184;SDS011;11258;52.516;13.318;2023-12-22T08:44:10;5.57;;;0.93;;
22184;SDS011;11258;52.516;13.318;2023-12-22T08:46:39;6.87;;;0.90;;
22184;SDS011;11258;52.516;13.318;2023-12-22T08:49:05;3.53;;;0.77;;
22184;SDS011;11258;52.516;13.318;2023-12-22T08:51:31;5.13;;;0.97;;
22184;SDS011;11258;52.516;13.318;2023-12-22T08:53:58;5.43;;;1.27;;
22184;SDS011;11258;52.516;13.318;2023-12-22T08:56:24;5.40;;;1.63;;
22184;SDS011;11258;52.516;13.318;2023-12-22T08:58:51;4.37;;;1.00;;
22184;SDS011;11258;52.516;13.318;2023-12-22T09:01:18;3.93;;;0.97;;
22184;SDS011;11258;52.516;13.318;2023-12-22T09:03:44;2.53;;;0.67;;
22184;SDS011;11258;52.516;13.318;2023-12-22T09:06:14;2.70;;;1.07;;
22184;SDS011;11258;52.516;13.318;2023-12-22T09:08:41;9.70;;;1.10;;
22184;SDS011;11258;52.516;13.318;2023-12-22T09:11:07;10.60;;;1.10;;
22184;SDS011;11258;52.516;13.318;2023-12-22T09:13:33;4.67;;;0.97;;
22184;SDS011;11258;52.516;13.318;2023-12-22T09:16:01;2.43;;;0.80;;
22184;SDS011;11258;52.516;13.318;2023-12-22T09:18:30;4.60;;;1.30;;
22184;SDS011;11258;52.516;13.318;2023-12-22T09:20:56;6.90;;;1.10;;
22184;SDS011;11258;52.516;13.318;2023-12-22T09:23:22;6.40;;;1.27;;
22184;SDS011;11258;52.516;13.318;2023-12-22T09:25:48;8.03;;;1.10;;
22184;SDS011;11258;52.516;13.318;2023-12-22T09:28:14;8.70;;;1.17;;
22184;SDS011;11258;52.516;13.318;2023-12-22T09:30:40;6.60;;;1.53;;
22184;SDS011;11258;52.516;13.318;2023-12-22T09:33:07;4.30;;;1.23;;
22184;SDS011;11258;52.516;13.318;2023-12-22T09:35:33;5.47;;;1.40;;
22184;SDS011;11258;52.516;13.318;2023-12-22T09:37:59;7.40;;;2.30;;
22184;SDS011;11258;52.516;13.318;2023-12-22T09:40:25;5.93;;;1.10;;
22184;SDS011;11258;52.516;13.318;2023-12-22T09:42:52;8.53;;;2.07;;
22184;SDS011;11258;52.516;13.318;2023-12-22T09:45:20;7.57;;;1.20;;
22184;SDS011;11258;52.516;13.318;2023-12-22T09:47:46;11.37;;;1.97;;
22184;SDS011;11258;52.516;13.318;2023-12-22T09:50:14;5.43;;;1.70;;
22184;SDS011;11258;52.516;13.318;2023-12-22T09:52:41;6.67;;;0.97;;
22184;SDS011;11258;52.516;13.318;2023-12-22T09:55:09;8.67;;;1.97;;
22184;SDS011;11258;52.516;13.318;2023-12-22T09:57:35;5.97;;;1.80;;
22184;SDS011;11258;52.516;13.318;2023-12-22T10:00:01;7.93;;;1.70;;
22184;SDS011;11258;52.516;13.318;2023-12-22T10:02:31;7.50;;;2.33;;
22184;SDS011;11258;52.516;13.318;2023-12-22T10:04:59;9.70;;;2.93;;
22184;SDS011;11258;52.516;13.318;2023-12-22T10:07:25;9.87;;;1.77;;
22184;SDS011;11258;52.516;13.318;2023-12-22T10:09:52;9.00;;;1.50;;
22184;SDS011;11258;52.516;13.318;2023-12-22T10:12:20;8.17;;;2.30;;
22184;SDS011;11258;52.516;13.318;2023-12-22T10:14:47;10.10;;;1.53;;
22184;SDS011;11258;52.516;13.318;2023-12-22T10:17:13;6.60;;;1.67;;
22184;SDS011;11258;52.516;13.318;2023-12-22T10:19:39;5.43;;;2.07;;
22184;SDS011;11258;52.516;13.318;2023-12-22T10:22:05;6.90;;;2.00;;
22184;SDS011;11258;52.516;13.318;2023-12-22T10:24:41;7.37;;;1.17;;
22184;SDS011;11258;52.516;13.318;2023-12-22T10:27:08;7.30;;;1.57;;
22184;SDS011;11258;52.516;13.318;2023-12-22T10:29:34;8.50;;;2.33;;
22184;SDS011;11258;52.516;13.318;2023-12-22T10:32:04;9.00;;;2.10;;
22184;SDS011;11258;52.516;13.318;2023-12-22T10:34:30;8.50;;;1.80;;
22184;SDS011;11258;52.516;13.318;2023-12-22T10:36:58;5.57;;;1.33;;
22184;SDS011;11258;52.516;13.318;2023-12-22T10:39:27;11.07;;;1.87;;
22184;SDS011;11258;52.516;13.318;2023-12-22T10:41:54;7.77;;;1.27;;
22184;SDS011;11258;52.516;13.318;2023-12-22T10:44:20;8.77;;;2.20;;
22184;SDS011;11258;52.516;13.318;2023-12-22T10:46:49;16.80;;;2.30;;
22184;SDS011;11258;52.516;13.318;2023-12-22T10:49:15;6.50;;;1.60;;
22184;SDS011;11258;52.516;13.318;2023-12-22T10:51:41;3.90;;;1.20;;
22184;SDS011;11258;52.516;13.318;2023-12-22T10:54:07;6.97;;;1.80;;
22184;SDS011;11258;52.516;13.318;2023-12-22T10:56:33;8.17;;;1.90;;
22184;SDS011;11258;52.516;13.318;2023-12-22T10:58:59;5.10;;;1.53;;
22184;SDS011;11258;52.516;13.318;2023-12-22T11:01:29;7.93;;;1.30;;
22184;SDS011;11258;52.516;13.318;2023-12-22T11:03:57;6.37;;;1.90;;
22184;SDS011;11258;52.516;13.318;2023-12-22T11:06:24;9.03;;;1.93;;
22184;SDS011;11258;52.516;13.318;2023-12-22T11:08:52;8.87;;;2.10;;
22184;SDS011;11258;52.516;13.318;2023-12-22T11:11:30;9.57;;;2.40;;
22184;SDS011;11258;52.516;13.318;2023-12-22T11:13:56;5.07;;;1.57;;
22184;SDS011;11258;52.516;13.318;2023-12-22T11:16:23;5.73;;;1.33;;
22184;SDS011;11258;52.516;13.318;2023-12-22T11:18:51;4.87;;;1.80;;
22184;SDS011;11258;52.516;13.318;2023-12-22T11:21:20;6.43;;;1.73;;
22184;SDS011;11258;52.516;13.318;2023-12-22T11:23:47;7.43;;;1.70;;
22184;SDS011;11258;52.516;13.318;2023-12-22T11:26:13;7.10;;;1.43;;
22184;SDS011;11258;52.516;13.318;2023-12-22T11:28:39;3.27;;;1.63;;
22184;SDS011;11258;52.516;13.318;2023-12-22T11:31:07;5.70;;;1.30;;
22184;SDS011;11258;52.516;13.318;2023-12-22T11:33:34;7.73;;;1.40;;
22184;SDS011;11258;52.516;13.318;2023-12-22T11:36:01;9.20;;;1.67;;
22184;SDS011;11258;52.516;13.318;2023-12-22T11:38:27;3.20;;;1.20;;
22184;SDS011;11258;52.516;13.318;2023-12-22T11:40:53;4.87;;;1.40;;
22184;SDS011;11258;52.516;13.318;2023-12-22T11:43:19;9.63;;;1.60;;
22184;SDS011;11258;52.516;13.318;2023-12-22T11:45:48;4.07;;;1.47;;
22184;SDS011;11258;52.516;13.318;2023-12-22T11:48:14;4.60;;;1.10;;
22184;SDS011;11258;52.516;13.318;2023-12-22T11:50:40;6.03;;;1.57;;
22184;SDS011;11258;52.516;13.318;2023-12-22T11:56:03;7.37;;;1.83;;
22184;SDS011;11258;52.516;13.318;2023-12-22T11:58:43;4.53;;;1.63;;
22184;SDS011;11258;52.516;13.318;2023-12-22T12:01:16;4.20;;;0.90;;
22184;SDS011;11258;52.516;13.318;2023-12-22T12:08:59;7.23;;;1.27;;
22184;SDS011;11258;52.516;13.318;2023-12-22T12:14:11;4.63;;;1.07;;
22184;SDS011;11258;52.516;13.318;2023-12-22T12:16:40;6.23;;;1.13;;
22184;SDS011;11258;52.516;13.318;2023-12-22T12:19:09;3.57;;;1.00;;
22184;SDS011;11258;52.516;13.318;2023-12-22T12:21:35;7.67;;;1.67;;
22184;SDS011;11258;52.516;13.318;2023-12-22T12:24:01;4.73;;;1.17;;
22184;SDS011;11258;52.516;13.318;2023-12-22T12:26:30;6.07;;;1.57;;
22184;SDS011;11258;52.516;13.318;2023-12-22T12:28:56;6.73;;;1.70;;
22184;SDS011;11258;52.516;13.318;2023-12-22T12:31:26;7.53;;;1.73;;
22184;SDS011;11258;52.516;13.318;2023-12-22T12:34:01;6.60;;;1.60;;
22184;SDS011;11258;52.516;13.318;2023-12-22T12:36:27;5.47;;;1.33;;
22184;SDS011;11258;52.516;13.318;2023-12-22T12:41:30;6.03;;;1.40;;
22184;SDS011;11258;52.516;13.318;2023-12-22T12:43:59;5.70;;;1.30;;
22184;SDS011;11258;52.516;13.318;2023-12-22T12:46:32;2.37;;;1.10;;
22184;SDS011;11258;52.516;13.318;2023-12-22T12:49:02;4.83;;;1.20;;
22184;SDS011;11258;52.516;13.318;2023-12-22T12:51:29;6.87;;;2.00;;
22184;SDS011;11258;52.516;13.318;2023-12-22T12:53:55;7.20;;;1.30;;
22184;SDS011;11258;52.516;13.318;2023-12-22T12:56:21;9.57;;;2.07;;
22184;SDS011;11258;52.516;13.318;2023-12-22T12:58:47;4.23;;;1.27;;
22184;SDS011;11258;52.516;13.318;2023-12-22T13:01:13;7.70;;;1.67;;
22184;SDS011;11258;52.516;13.318;2023-12-22T13:03:53;5.63;;;1.80;;
22184;SDS011;11258;52.516;13.318;2023-12-22T13:06:19;7.10;;;1.70;;
22184;SDS011;11258;52.516;13.318;2023-12-22T13:08:49;6.17;;;1.30;;
22184;SDS011;11258;52.516;13.318;2023-12-22T13:11:18;9.70;;;2.03;;
22184;SDS011;11258;52.516;13.318;2023-12-22T13:13:46;9.90;;;1.70;;
22184;SDS011;11258;52.516;13.318;2023-12-22T13:16:12;8.27;;;2.20;;
22184;SDS011;11258;52.516;13.318;2023-12-22T13:18:38;6.70;;;1.80;;
22184;SDS011;11258;52.516;13.318;2023-12-22T13:21:05;7.73;;;2.23;;
22184;SDS011;11258;52.516;13.318;2023-12-22T13:23:31;7.53;;;1.67;;
22184;SDS011;11258;52.516;13.318;2023-12-22T13:25:57;2.63;;;1.20;;
22184;SDS011;11258;52.516;13.318;2023-12-22T13:28:27;4.23;;;1.57;;
22184;SDS011;11258;52.516;13.318;2023-12-22T13:30:53;9.27;;;1.60;;
22184;SDS011;11258;52.516;13.318;2023-12-22T13:33:19;6.17;;;1.73;;
22184;SDS011;11258;52.516;13.318;2023-12-22T13:35:46;7.53;;;1.93;;
22184;SDS011;11258;52.516;13.318;2023-12-22T13:38:12;10.70;;;1.93;;
22184;SDS011;11258;52.516;13.318;2023-12-22T13:40:38;5.90;;;2.23;;
22184;SDS011;11258;52.516;13.318;2023-12-22T13:43:04;9.77;;;2.30;;
22184;SDS011;11258;52.516;13.318;2023-12-22T13:45:32;10.80;;;3.00;;
22184;SDS011;11258;52.516;13.318;2023-12-22T13:47:58;7.80;;;1.77;;
22184;SDS011;11258;52.516;13.318;2023-12-22T13:50:24;6.27;;;1.30;;
22184;SDS011;11258;52.516;13.318;2023-12-22T13:52:50;5.80;;;2.60;;
22184;SDS011;11258;52.516;13.318;2023-12-22T13:55:17;5.53;;;2.10;;
22184;SDS011;11258;52.516;13.318;2023-12-22T13:57:44;9.07;;;1.93;;
22184;SDS011;11258;52.516;13.318;2023-12-22T14:02:48;4.27;;;0.70;;
22184;SDS011;11258;52.516;13.318;2023-12-22T14:05:15;7.90;;;1.93;;
22184;SDS011;11258;52.516;13.318;2023-12-22T14:07:41;8.97;;;1.63;;
22184;SDS011;11258;52.516;13.318;2023-12-22T14:10:07;7.67;;;1.73;;
22184;SDS011;11258;52.516;13.318;2023-12-22T14:12:33;1.23;;;0.77;;
22184;SDS011;11258;52.516;13.318;2023-12-22T14:15:00;7.73;;;1.60;;
22184;SDS011;11258;52.516;13.318;2023-12-22T14:17:26;5.70;;;2.33;;
22184;SDS011;11258;52.516;13.318;2023-12-22T14:19:52;4.30;;;1.40;;
22184;SDS011;11258;52.516;13.318;2023-12-22T14:22:18;3.67;;;1.20;;
22184;SDS011;11258;52.516;13.318;2023-12-22T14:24:44;3.53;;;1.00;;
22184;SDS011;11258;52.516;13.318;2023-12-22T14:27:10;9.03;;;1.83;;
22184;SDS011;11258;52.516;13.318;2023-12-22T14:29:37;5.83;;;1.83;;
22184;SDS011;11258;52.516;13.318;2023-12-22T14:32:05;4.87;;;1.50;;
22184;SDS011;11258;52.516;13.318;2023-12-22T14:34:33;4.83;;;0.97;;
22184;SDS011;11258;52.516;13.318;2023-12-22T14:36:59;4.97;;;1.17;;
22184;SDS011;11258;52.516;13.318;2023-12-22T14:39:26;4.50;;;1.30;;
22184;SDS011;11258;52.516;13.318;2023-12-22T14:41:52;4.87;;;1.30;;
22184;SDS011;11258;52.516;13.318;2023-12-22T14:44:18;2.43;;;1.20;;
22184;SDS011;11258;52.516;13.318;2023-12-22T14:46:45;3.83;;;1.53;;
22184;SDS011;11258;52.516;13.318;2023-12-22T14:49:11;4.83;;;1.47;;